createdAt,value
2023-02-11T00:02:50.766Z,49.71
2023-02-11T00:07:52.625Z,50.67
2023-02-11T00:12:54.515Z,50.87
2023-02-11T00:17:56.638Z,50.58
2023-02-11T00:22:58.498Z,50.88
2023-02-11T00:28:00.472Z,50.58
2023-02-11T00:33:02.617Z,50.67
2023-02-11T00:38:04.785Z,50.60
2023-02-11T00:43:06.703Z,50.74
2023-02-11T00:48:08.602Z,51.04
2023-02-11T00:53:10.924Z,50.72
2023-02-11T00:58:13.586Z,50.37
2023-02-11T01:03:17.397Z,50.39
2023-02-11T01:08:19.965Z,50.59
2023-02-11T01:13:22.214Z,50.85
2023-02-11T01:18:25.135Z,50.69
2023-02-11T01:23:27.220Z,51.08
2023-02-11T01:28:30.296Z,50.94
2023-02-11T01:33:34.803Z,50.90
2023-02-11T01:38:38.026Z,50.63
2023-02-11T01:43:46.384Z,50.99
2023-02-11T01:48:53.363Z,50.90
2023-02-11T01:54:16.037Z,50.66
2023-02-11T01:59:27.762Z,50.55
2023-02-11T02:04:35.591Z,50.37
2023-02-11T02:09:43.397Z,50.38
2023-02-11T02:14:45.248Z,50.74
2023-02-11T02:20:04.332Z,50.81
2023-02-11T02:25:27.297Z,51.01
2023-02-11T02:31:06.469Z,50.73
2023-02-11T02:36:14.357Z,50.25
2023-02-11T02:41:20.162Z,50.46
2023-02-11T02:46:33.501Z,50.30
2023-02-11T02:51:55.592Z,50.24
2023-02-11T02:57:34.127Z,49.82
2023-02-11T03:03:06.559Z,49.64
2023-02-11T03:08:11.343Z,49.26
2023-02-11T03:13:19.249Z,49.47
2023-02-11T03:18:24.635Z,48.91
2023-02-11T03:24:03.307Z,49.11
2023-02-11T03:29:18.468Z,48.89
2023-02-11T03:34:29.158Z,48.82
2023-02-11T03:39:38.083Z,49.02
2023-02-11T03:45:03.130Z,48.84
2023-02-11T03:50:07.830Z,48.47
2023-02-11T03:55:15.257Z,48.87
2023-02-11T04:00:17.185Z,48.89
2023-02-11T04:05:19.090Z,48.84
2023-02-11T04:10:21.182Z,48.94
2023-02-11T04:15:23.386Z,49.28
2023-02-11T04:20:25.222Z,48.98
2023-02-11T04:25:27.353Z,49.29
2023-02-11T04:30:29.217Z,49.44
2023-02-11T04:35:31.078Z,49.43
2023-02-11T04:40:32.932Z,49.54
2023-02-11T04:45:34.829Z,49.51
2023-02-11T04:50:36.961Z,49.87
2023-02-11T04:55:38.812Z,49.43
2023-02-11T05:00:40.658Z,49.75
2023-02-11T05:05:43.156Z,49.55
2023-02-11T05:10:48.142Z,49.97
2023-02-11T05:15:50.804Z,51.23
2023-02-11T05:20:52.801Z,52.48
2023-02-11T05:25:54.607Z,53.93
2023-02-11T05:30:56.861Z,54.18
2023-02-11T05:36:01.997Z,54.62
2023-02-11T05:41:05.599Z,55.00
2023-02-11T05:46:07.694Z,55.22
2023-02-11T05:51:09.832Z,55.50
2023-02-11T05:56:11.796Z,56.25
2023-02-11T06:01:13.630Z,56.56
2023-02-11T06:06:15.787Z,56.90
2023-02-11T06:11:18.381Z,57.53
2023-02-11T06:16:20.266Z,57.00
2023-02-11T06:21:23.865Z,56.71
2023-02-11T06:26:27.045Z,57.29
2023-02-11T06:31:29.174Z,57.25
2023-02-11T06:36:31.585Z,56.86
2023-02-11T06:41:34.022Z,56.52
2023-02-11T06:46:36.286Z,56.18
2023-02-11T06:51:38.301Z,56.21
2023-02-11T06:56:41.412Z,55.91
2023-02-11T07:01:43.802Z,55.69
2023-02-11T07:06:45.660Z,56.08
2023-02-11T07:11:47.551Z,57.19
2023-02-11T07:16:49.400Z,57.19
2023-02-11T07:21:51.271Z,57.60
2023-02-11T07:26:54.198Z,58.39
2023-02-11T07:31:56.224Z,58.86
2023-02-11T07:36:58.078Z,58.55
2023-02-11T07:42:00.246Z,58.50
2023-02-11T07:47:03.299Z,58.77
2023-02-11T07:52:05.277Z,59.13
2023-02-11T07:57:07.116Z,59.26
2023-02-11T08:02:09.731Z,58.84
2023-02-11T08:07:15.291Z,59.08
2023-02-11T08:12:17.425Z,59.52
2023-02-11T08:17:19.916Z,59.60
2023-02-11T08:22:21.843Z,58.69
2023-02-11T08:27:23.651Z,58.58
2023-02-11T08:32:25.982Z,58.34
2023-02-11T08:37:27.837Z,58.55
2023-02-11T08:42:29.869Z,58.57
2023-02-11T08:47:31.675Z,58.20
2023-02-11T08:52:33.603Z,58.64
2023-02-11T08:57:35.521Z,58.42
2023-02-11T09:02:37.546Z,58.23
2023-02-11T09:07:39.444Z,57.62
2023-02-11T09:12:41.250Z,57.36
2023-02-11T09:17:43.103Z,57.11
2023-02-11T09:22:45.061Z,56.76
2023-02-11T09:27:47.077Z,56.49
2023-02-11T09:32:48.952Z,56.86
2023-02-11T09:37:50.839Z,57.01
2023-02-11T09:43:11.849Z,57.02
2023-02-11T09:48:18.577Z,56.90
2023-02-11T09:53:28.634Z,56.78
2023-02-11T09:58:33.583Z,57.00
2023-02-11T10:03:43.718Z,56.51
2023-02-11T10:09:13.301Z,56.67
2023-02-11T10:14:25.680Z,56.44
2023-02-11T10:19:42.402Z,56.49
2023-02-11T10:24:53.279Z,56.70
2023-02-11T10:30:24.467Z,56.75
2023-02-11T10:35:27.377Z,56.53
2023-02-11T10:40:31.033Z,55.92
2023-02-11T10:45:36.985Z,56.23
2023-02-11T10:50:38.835Z,55.65
2023-02-11T10:55:55.679Z,55.43
2023-02-11T11:00:59.994Z,55.69
2023-02-11T11:06:05.540Z,55.64
2023-02-11T11:11:09.681Z,55.49
2023-02-11T11:16:14.291Z,55.38
2023-02-11T11:21:25.823Z,55.36
2023-02-11T11:26:39.687Z,54.84
2023-02-11T11:32:05.501Z,55.24
2023-02-11T11:37:35.106Z,55.34
2023-02-11T11:42:39.897Z,55.06
2023-02-11T11:47:48.788Z,54.54
2023-02-11T11:53:05.351Z,54.67
2023-02-11T11:58:15.097Z,54.61
2023-02-11T12:03:25.883Z,54.79
2023-02-11T12:08:42.803Z,54.52
2023-02-11T12:14:09.163Z,54.71
2023-02-11T12:19:24.597Z,54.73
2023-02-11T12:24:54.604Z,54.15
2023-02-11T12:30:09.072Z,54.91
2023-02-11T12:35:47.483Z,55.24
2023-02-11T12:41:12.715Z,55.06
2023-02-11T12:46:39.410Z,55.90
2023-02-11T12:51:50.364Z,55.61
2023-02-11T12:57:06.574Z,56.20
2023-02-11T13:02:26.603Z,56.54
2023-02-11T13:07:35.625Z,58.32
2023-02-11T13:12:56.938Z,58.17
2023-02-11T13:18:37.357Z,58.65
2023-02-11T13:23:45.032Z,58.83
2023-02-11T13:29:17.412Z,58.85
2023-02-11T13:34:45.397Z,58.92
2023-02-11T13:40:22.027Z,58.96
2023-02-11T13:45:47.503Z,59.28
2023-02-11T13:50:55.972Z,59.89
2023-02-11T13:56:24.388Z,59.92
2023-02-11T14:01:42.377Z,59.61
2023-02-11T14:07:42.113Z,59.73
2023-02-11T14:13:20.001Z,59.47
2023-02-11T14:18:52.930Z,59.86
2023-02-11T14:24:14.753Z,58.74
2023-02-11T14:29:42.468Z,58.17
2023-02-11T14:34:56.526Z,57.56
2023-02-11T14:40:07.222Z,57.89
2023-02-11T14:45:14.550Z,57.49
2023-02-11T14:50:22.861Z,57.60
2023-02-11T14:55:38.158Z,57.61
2023-02-11T15:00:49.775Z,57.11
2023-02-11T15:06:33.436Z,57.42
2023-02-11T15:11:40.822Z,57.69
2023-02-11T15:16:45.188Z,57.98
2023-02-11T15:21:48.017Z,57.45
2023-02-11T15:27:04.790Z,57.35
2023-02-11T15:32:10.062Z,57.38
2023-02-11T15:37:21.156Z,58.23
2023-02-11T15:42:32.523Z,57.90
2023-02-11T15:47:39.696Z,57.86
2023-02-11T15:52:45.750Z,57.67
2023-02-11T15:57:55.095Z,58.48
2023-02-11T16:02:57.180Z,58.64
2023-02-11T16:08:00.929Z,59.61
2023-02-11T16:13:08.796Z,59.82
2023-02-11T16:18:37.820Z,59.48
2023-02-11T16:23:44.235Z,60.03
2023-02-11T16:28:46.529Z,59.88
2023-02-11T16:33:48.648Z,60.41
2023-02-11T16:38:50.630Z,60.65
2023-02-11T16:43:52.485Z,60.67
2023-02-11T16:48:56.317Z,61.35
2023-02-11T16:53:58.145Z,61.03
2023-02-11T16:59:00.767Z,61.39
2023-02-11T17:04:02.688Z,61.21
2023-02-11T17:09:06.807Z,61.87
2023-02-11T17:14:08.607Z,61.34
2023-02-11T17:19:13.838Z,61.72
2023-02-11T17:24:15.956Z,62.22
2023-02-11T17:29:22.994Z,62.10
2023-02-11T17:34:25.009Z,61.53
2023-02-11T17:39:27.667Z,61.25
2023-02-11T17:44:29.511Z,61.81
2023-02-11T17:49:32.576Z,61.26
2023-02-11T17:54:35.214Z,62.44
2023-02-11T17:59:38.796Z,62.39
2023-02-11T18:04:40.823Z,62.38
2023-02-11T18:09:42.941Z,62.41
2023-02-11T18:14:45.145Z,62.74
2023-02-11T18:19:47.325Z,62.86
2023-02-11T18:24:54.764Z,63.41
2023-02-11T18:29:56.557Z,63.00
2023-02-11T18:34:58.383Z,63.23
2023-02-11T18:40:00.250Z,63.25
2023-02-11T18:45:02.355Z,63.45
2023-02-11T18:50:06.152Z,62.78
2023-02-11T18:55:09.560Z,63.16
2023-02-11T19:00:12.248Z,62.56
2023-02-11T19:05:14.267Z,62.98
2023-02-11T19:10:16.388Z,63.47
2023-02-11T19:15:18.318Z,62.62
2023-02-11T19:20:20.387Z,62.67
2023-02-11T19:25:22.460Z,63.05
2023-02-11T19:30:24.592Z,62.83
2023-02-11T19:35:26.587Z,62.93
2023-02-11T19:40:28.429Z,62.91
2023-02-11T19:45:30.343Z,62.99
2023-02-11T19:50:32.242Z,63.11
2023-02-11T19:55:36.897Z,63.09
2023-02-11T20:00:39.158Z,63.63
2023-02-11T20:05:43.459Z,63.13
2023-02-11T20:10:45.305Z,63.69
2023-02-11T20:15:47.638Z,63.46
2023-02-11T20:20:49.485Z,63.12
2023-02-11T20:25:51.629Z,62.97
2023-02-11T20:30:57.860Z,62.87
2023-02-11T20:36:02.980Z,63.23
2023-02-11T20:41:14.736Z,63.28
2023-02-11T20:46:18.485Z,63.83
2023-02-11T20:51:24.079Z,63.14
2023-02-11T20:56:31.502Z,62.73
2023-02-11T21:01:40.747Z,62.98
2023-02-11T21:06:47.266Z,63.40
2023-02-11T21:11:51.813Z,63.38
2023-02-11T21:16:55.922Z,63.40
2023-02-11T21:22:01.016Z,63.21
2023-02-11T21:27:03.214Z,63.14
2023-02-11T21:32:05.408Z,62.76
2023-02-11T21:37:07.262Z,62.40
2023-02-11T21:42:09.467Z,63.17
2023-02-11T21:47:11.553Z,62.82
2023-02-11T21:52:13.910Z,62.97
2023-02-11T21:57:15.867Z,62.70
2023-02-11T22:02:17.767Z,62.72
2023-02-11T22:07:20.862Z,63.05
2023-02-11T22:12:23.340Z,63.50
2023-02-11T22:17:25.349Z,63.09
2023-02-11T22:22:29.285Z,63.25
2023-02-11T22:27:31.224Z,63.54
2023-02-11T22:32:33.141Z,63.19
2023-02-11T22:37:35.125Z,62.85
2023-02-11T22:42:37.012Z,62.48
2023-02-11T22:47:38.997Z,62.51
2023-02-11T22:52:40.820Z,62.27
2023-02-11T22:57:42.640Z,62.46
2023-02-11T23:02:44.533Z,62.21
2023-02-11T23:07:46.372Z,62.44
2023-02-11T23:12:48.200Z,63.14
2023-02-11T23:17:50.039Z,62.96
2023-02-11T23:22:52.052Z,62.63
2023-02-11T23:27:53.892Z,63.27
2023-02-11T23:32:55.719Z,63.10
2023-02-11T23:37:57.587Z,62.81
2023-02-11T23:42:59.409Z,63.25
2023-02-11T23:48:01.213Z,62.81
2023-02-11T23:53:03.066Z,62.64
2023-02-11T23:58:04.875Z,63.25
